Pacific Eden — 2IYM9 — position and weather

sailwx.info

Track history (hours):
 
Tides and Currents Weather Stations Pressure Air Temp Water Temp Dewpoint Dewpoint Depression Visibility Wind Speed Wind Dir Waves Ship Positions

Pacific Eden

Last reported at 2018-Apr-19 09:19 UTC. Time now 2018-Apr-20 12:51 UTC.
Position S 22°23' E 166°41'.

Length 219 m; draft 7.7 m.

Type: Passenger vessel. MMSI: 235113819.

Date/timePositionNaut miles runAvg speedWind from/ knotsBaromVisibWave heightAir tempDewpointWater temp
2018-Apr-19 09:19S 22°23' E 166°41'410.9
2018-Apr-19 09:00S 22°23' E 166°38'510.9
2018-Apr-19 08:30S 22°21' E 166°32'510.9
2018-Apr-19 08:00S 22°20' E 166°26'3 6.4
2018-Apr-19 07:30S 22°16' E 166°26'0 0.2
2018-Apr-19 07:00S 22°16' E 166°26'0 0.0
2018-Apr-19 06:30S 22°16' E 166°26'0 0.0
2018-Apr-19 06:00S 22°16' E 166°26'0 0.0
2018-Apr-19 05:30S 22°16' E 166°26'0 0.0
2018-Apr-19 05:00S 22°16' E 166°26'0 0.0
2018-Apr-19 04:30S 22°16' E 166°26'0 0.0
2018-Apr-19 04:00S 22°16' E 166°26'0 0.0
2018-Apr-19 03:30S 22°16' E 166°26'0 0.0
2018-Apr-19 03:00S 22°16' E 166°26'0 0.0
2018-Apr-19 02:30S 22°16' E 166°26'0 0.0
2018-Apr-19 02:00S 22°16' E 166°26'0 0.0
2018-Apr-19 01:30S 22°16' E 166°26'0 0.0
2018-Apr-19 01:00S 22°16' E 166°26'0 0.0
2018-Apr-19 00:30S 22°16' E 166°26'0 0.0
2018-Apr-19 00:00S 22°16' E 166°26'0 0.0
2018-Apr-18 23:30S 22°16' E 166°26'0 0.0
2018-Apr-18 23:00S 22°16' E 166°26'0 0.0
2018-Apr-18 22:30S 22°16' E 166°26'0 0.0
2018-Apr-18 22:00S 22°16' E 166°26'0 0.0
2018-Apr-18 21:30S 22°16' E 166°26'0 0.0
2018-Apr-18 21:00S 22°16' E 166°26'1 2.1
2018-Apr-18 20:30S 22°17' E 166°26'5 9.4
2018-Apr-18 20:00S 22°18' E 166°21'5 9.3
2018-Apr-18 19:30S 22°20' E 166°16'611.8
2018-Apr-18 19:00S 22°25' E 166°12'714.2
2018-Apr-18 18:30S 22°30' E 166°06'814.6
2018-Apr-18 17:57S 22°35' E 165°60'  
2018-Apr-16 13:37S 32°42' E 152°57'216.6
2018-Apr-16 13:28S 32°44' E 152°54'816.5
2018-Apr-16 13:00S 32°49' E 152°48'816.0
2018-Apr-16 12:30S 32°54' E 152°40'917.3
2018-Apr-16 12:00S 32°60' E 152°33'918.7
2018-Apr-16 11:30S 33°06' E 152°24'1019.2
2018-Apr-16 11:00S 33°12' E 152°16'1019.1
2018-Apr-16 10:30S 33°19' E 152°07'918.9
2018-Apr-16 10:00S 33°25' E 151°59'1018.9
2018-Apr-16 09:30S 33°31' E 151°50'919.0
2018-Apr-16 09:00S 33°37' E 151°41'1019.2
2018-Apr-16 08:30S 33°44' E 151°33'1019.0
2018-Apr-16 08:00S 33°50' E 151°24'612.6
2018-Apr-16 07:30S 33°50' E 151°17'2 4.3
2018-Apr-16 07:00S 33°51' E 151°15'3 0.3
2018-Apr-15 19:47S 33°52' E 151°11'0 0.0
2018-Apr-15 19:29S 33°52' E 151°11'0 0.2
2018-Apr-15 18:59S 33°52' E 151°11'1 1.2
2018-Apr-15 18:30S 33°52' E 151°12'3 5.7
2018-Apr-15 18:01S 33°51' E 151°15'510.9
2018-Apr-15 17:30S 33°51' E 151°22'5 9.1
2018-Apr-15 17:01S 33°51' E 151°27'4 8.9
2018-Apr-15 16:30S 33°51' E 151°33'4 9.0
2018-Apr-15 16:00S 33°52' E 151°38'4 8.8
2018-Apr-15 15:30S 33°53' E 151°43'5 9.0
2018-Apr-15 15:00S 33°55' E 151°48'4 8.8
2018-Apr-15 14:31S 33°56' E 151°53'4 8.8
2018-Apr-15 14:00S 33°57' E 151°58'5 9.0
2018-Apr-15 13:30S 33°59' E 152°03'58 2.2
2018-Apr-14 11:23S 33°15' E 152°49'511.9
2018-Apr-14 10:58S 33°11' E 152°52'4 9.1
2018-Apr-14 10:30S 33°11' E 152°57'4 8.5
2018-Apr-14 10:01S 33°11' E 153°02'8 3.4
2018-Apr-14 07:36S 33°17' E 152°56'2 2.6
2018-Apr-14 06:48S 33°17' E 152°59'1 3.8
2018-Apr-14 06:30S 33°16' E 152°59'4 3.5
2018-Apr-14 05:26S 33°13' E 153°02'12 3.2
2018-Apr-14 01:36S 33°02' E 152°57'1 7.5
2018-Apr-14 01:30S 33°02' E 152°56'4 7.7
2018-Apr-14 00:59S 33°01' E 152°51'4 8.2
2018-Apr-14 00:30S 32°58' E 152°52'5 9.6
2018-Apr-14 00:00S 32°56' E 152°58'2 4.1
2018-Apr-13 23:29S 32°55' E 152°59'2 3.6
2018-Apr-13 22:59S 32°53' E 152°59'2 4.2
2018-Apr-13 22:26S 32°50' E 152°60'5 8.1
2018-Apr-13 21:52S 32°46' E 152°60'3 8.3
2018-Apr-13 21:31S 32°43' E 152°60'4 8.2
2018-Apr-13 21:00S 32°39' E 153°01'4 8.3
2018-Apr-13 20:30S 32°35' E 152°59'4 8.6
2018-Apr-13 20:00S 32°33' E 152°54'5 9.2
2018-Apr-13 19:30S 32°36' E 152°50'5 9.7
2018-Apr-13 19:01S 32°40' E 152°46'5 9.6
2018-Apr-13 18:31S 32°43' E 152°42'19 9.6
2018-Apr-13 16:30S 32°57' E 152°26'5 9.7
2018-Apr-13 16:00S 33°01' E 152°23'5 9.7
2018-Apr-13 15:30S 33°04' E 152°19'9 9.5
2018-Apr-13 14:30S 33°11' E 152°11'5 9.8
2018-Apr-13 14:00S 33°15' E 152°07'14 9.6
2018-Apr-13 12:30S 33°25' E 151°55'5 9.2
2018-Apr-13 12:00S 33°29' E 151°51'5 9.2
2018-Apr-13 11:30S 33°32' E 151°48'5 9.3
2018-Apr-13 11:00S 33°35' E 151°44'5 9.2
2018-Apr-13 10:30S 33°39' E 151°40'5 9.2
2018-Apr-13 10:00S 33°42' E 151°36'5 9.3
2018-Apr-13 09:30S 33°45' E 151°33'510.8
2018-Apr-13 09:00S 33°49' E 151°28'5 9.0
2018-Apr-13 08:30S 33°52' E 151°24'5 9.2
2018-Apr-13 08:00S 33°51' E 151°19'4 8.6
2018-Apr-13 07:30S 33°51' E 151°14'0 0.0
2018-Apr-12 22:06S 33°51' E 151°14'1 7.5
2018-Apr-12 21:56S 33°51' E 151°15'410.3
2018-Apr-12 21:31S 33°50' E 151°21'5 9.9
2018-Apr-12 21:01S 33°54' E 151°24'612.3
2018-Apr-12 20:31S 34°00' E 151°23'612.5
2018-Apr-12 20:01S 34°06' E 151°21'612.6
2018-Apr-12 19:31S 34°12' E 151°20'713.0
2018-Apr-12 19:00S 34°19' E 151°18'25416.1
2018-Apr-12 03:16S 38°12' E 149°14'619.7
2018-Apr-12 02:58S 38°16' E 149°09'919.6
2018-Apr-12 02:30S 38°21' E 148°59'1019.3
2018-Apr-12 02:00S 38°27' E 148°49'1019.6
2018-Apr-12 01:30S 38°32' E 148°39'1519.4
2018-Apr-12 00:43S 38°41' E 148°23'418.7
2018-Apr-12 00:29S 38°44' E 148°18'918.9
2018-Apr-12 00:00S 38°48' E 148°08'918.9
2018-Apr-11 23:30S 38°51' E 147°56'918.9
2018-Apr-11 23:00S 38°54' E 147°45'918.6
2018-Apr-11 22:30S 38°58' E 147°34'918.6
2018-Apr-11 22:00S 39°01' E 147°23'918.2
2018-Apr-11 21:30S 39°04' E 147°12'1018.0
2018-Apr-11 20:58S 39°08' E 146°60'918.0
2018-Apr-11 20:28S 39°11' E 146°49'1018.2
2018-Apr-11 19:54S 39°14' E 146°37'718.2
2018-Apr-11 19:30S 39°15' E 146°27'918.4
2018-Apr-11 19:00S 39°15' E 146°16'1017.8
2018-Apr-11 18:27S 39°12' E 146°03'1019.3
2018-Apr-11 17:57S 39°07' E 145°53'919.3
2018-Apr-11 17:29S 39°02' E 145°43'919.4
2018-Apr-11 17:00S 38°57' E 145°33'2119.5
2018-Apr-11 15:55S 38°46' E 145°10'57 5.2
2018-Apr-11 05:04S 37°51' E 144°56'0 0.0
2018-Apr-11 04:49S 37°51' E 144°56'0 0.0
2018-Apr-11 01:34S 37°51' E 144°56'0 0.1
2018-Apr-11 01:10S 37°51' E 144°56'0 1.0
2018-Apr-11 00:58S 37°51' E 144°56'2 3.4
2018-Apr-11 00:30S 37°53' E 144°56'612.6
2018-Apr-10 23:59S 37°59' E 144°55'41 9.4
2018-Apr-10 19:39S 38°40' E 144°55'215.4
2018-Apr-10 19:30S 38°41' E 144°58'815.4
2018-Apr-10 19:00S 38°45' E 145°06'815.4
2018-Apr-10 18:30S 38°50' E 145°15'1015.4
2018-Apr-10 17:50S 38°55' E 145°26'515.2
2018-Apr-10 17:30S 38°58' E 145°31'714.7
2018-Apr-10 17:00S 39°02' E 145°39'1817.2
2018-Apr-10 15:59S 39°11' E 145°58'817.2
2018-Apr-10 15:30S 39°12' E 146°09'4617.0
2018-Apr-10 12:47S 39°00' E 147°07'517.4
2018-Apr-10 12:29S 38°59' E 147°13'917.4
2018-Apr-10 11:58S 38°56' E 147°24'817.5
2018-Apr-10 11:29S 38°53' E 147°34'917.4
2018-Apr-10 10:58S 38°50' E 147°45'817.4
2018-Apr-10 10:30S 38°48' E 147°55'917.6
2018-Apr-10 10:00S 38°45' E 148°06'917.8
2018-Apr-10 09:30S 38°42' E 148°16'1018.2
2018-Apr-10 08:58S 38°37' E 148°27'818.0
2018-Apr-10 08:30S 38°32' E 148°36'1318.2
2018-Apr-10 07:49S 38°25' E 148°49'718.2
2018-Apr-10 07:24S 38°21' E 148°57'818.2
2018-Apr-10 06:59S 38°17' E 149°05'918.5
2018-Apr-10 06:30S 38°12' E 149°15'1318.7
2018-Apr-10 05:48S 38°05' E 149°29'36318.1
2018-Apr-09 09:47S 33°44' E 154°40'517.4
2018-Apr-09 09:30S 33°40' E 154°44'  
Track history (hours):
 
Tides and Currents Weather Stations Pressure Air Temp Water Temp Dewpoint Dewpoint Depression Visibility Wind Speed Wind Dir Waves Ship Positions

Pacific Eden

Last reported at 2018-Apr-19 09:19 UTC. Time now 2018-Apr-20 12:51 UTC.
Position S 22°23' E 166°41'.

Length 219 m; draft 7.7 m.

Type: Passenger vessel. MMSI: 235113819.

Date/timePositionNaut miles runAvg speedWind from/ knotsBaromVisibWave heightAir tempDewpointWater temp
2018-Apr-19 09:19S 22°23' E 166°41'410.9
2018-Apr-19 09:00S 22°23' E 166°38'510.9
2018-Apr-19 08:30S 22°21' E 166°32'510.9
2018-Apr-19 08:00S 22°20' E 166°26'3 6.4
2018-Apr-19 07:30S 22°16' E 166°26'0 0.2
2018-Apr-19 07:00S 22°16' E 166°26'0 0.0
2018-Apr-19 06:30S 22°16' E 166°26'0 0.0
2018-Apr-19 06:00S 22°16' E 166°26'0 0.0
2018-Apr-19 05:30S 22°16' E 166°26'0 0.0
2018-Apr-19 05:00S 22°16' E 166°26'0 0.0
2018-Apr-19 04:30S 22°16' E 166°26'0 0.0
2018-Apr-19 04:00S 22°16' E 166°26'0 0.0
2018-Apr-19 03:30S 22°16' E 166°26'0 0.0
2018-Apr-19 03:00S 22°16' E 166°26'0 0.0
2018-Apr-19 02:30S 22°16' E 166°26'0 0.0
2018-Apr-19 02:00S 22°16' E 166°26'0 0.0
2018-Apr-19 01:30S 22°16' E 166°26'0 0.0
2018-Apr-19 01:00S 22°16' E 166°26'0 0.0
2018-Apr-19 00:30S 22°16' E 166°26'0 0.0
2018-Apr-19 00:00S 22°16' E 166°26'0 0.0
2018-Apr-18 23:30S 22°16' E 166°26'0 0.0
2018-Apr-18 23:00S 22°16' E 166°26'0 0.0
2018-Apr-18 22:30S 22°16' E 166°26'0 0.0
2018-Apr-18 22:00S 22°16' E 166°26'0 0.0
2018-Apr-18 21:30S 22°16' E 166°26'0 0.0
2018-Apr-18 21:00S 22°16' E 166°26'1 2.1
2018-Apr-18 20:30S 22°17' E 166°26'5 9.4
2018-Apr-18 20:00S 22°18' E 166°21'5 9.3
2018-Apr-18 19:30S 22°20' E 166°16'611.8
2018-Apr-18 19:00S 22°25' E 166°12'714.2
2018-Apr-18 18:30S 22°30' E 166°06'814.6
2018-Apr-18 17:57S 22°35' E 165°60'  
2018-Apr-16 13:37S 32°42' E 152°57'216.6
2018-Apr-16 13:28S 32°44' E 152°54'816.5
2018-Apr-16 13:00S 32°49' E 152°48'816.0
2018-Apr-16 12:30S 32°54' E 152°40'917.3
2018-Apr-16 12:00S 32°60' E 152°33'918.7
2018-Apr-16 11:30S 33°06' E 152°24'1019.2
2018-Apr-16 11:00S 33°12' E 152°16'1019.1
2018-Apr-16 10:30S 33°19' E 152°07'918.9
2018-Apr-16 10:00S 33°25' E 151°59'1018.9
2018-Apr-16 09:30S 33°31' E 151°50'919.0
2018-Apr-16 09:00S 33°37' E 151°41'1019.2
2018-Apr-16 08:30S 33°44' E 151°33'1019.0
2018-Apr-16 08:00S 33°50' E 151°24'612.6
2018-Apr-16 07:30S 33°50' E 151°17'2 4.3
2018-Apr-16 07:00S 33°51' E 151°15'3 0.3
2018-Apr-15 19:47S 33°52' E 151°11'0 0.0
2018-Apr-15 19:29S 33°52' E 151°11'0 0.2
2018-Apr-15 18:59S 33°52' E 151°11'1 1.2
2018-Apr-15 18:30S 33°52' E 151°12'3 5.7
2018-Apr-15 18:01S 33°51' E 151°15'510.9
2018-Apr-15 17:30S 33°51' E 151°22'5 9.1
2018-Apr-15 17:01S 33°51' E 151°27'4 8.9
2018-Apr-15 16:30S 33°51' E 151°33'4 9.0
2018-Apr-15 16:00S 33°52' E 151°38'4 8.8
2018-Apr-15 15:30S 33°53' E 151°43'5 9.0
2018-Apr-15 15:00S 33°55' E 151°48'4 8.8
2018-Apr-15 14:31S 33°56' E 151°53'4 8.8
2018-Apr-15 14:00S 33°57' E 151°58'5 9.0
2018-Apr-15 13:30S 33°59' E 152°03'58 2.2
2018-Apr-14 11:23S 33°15' E 152°49'511.9
2018-Apr-14 10:58S 33°11' E 152°52'4 9.1
2018-Apr-14 10:30S 33°11' E 152°57'4 8.5
2018-Apr-14 10:01S 33°11' E 153°02'8 3.4
2018-Apr-14 07:36S 33°17' E 152°56'2 2.6
2018-Apr-14 06:48S 33°17' E 152°59'1 3.8
2018-Apr-14 06:30S 33°16' E 152°59'4 3.5
2018-Apr-14 05:26S 33°13' E 153°02'12 3.2
2018-Apr-14 01:36S 33°02' E 152°57'1 7.5
2018-Apr-14 01:30S 33°02' E 152°56'4 7.7
2018-Apr-14 00:59S 33°01' E 152°51'4 8.2
2018-Apr-14 00:30S 32°58' E 152°52'5 9.6
2018-Apr-14 00:00S 32°56' E 152°58'2 4.1
2018-Apr-13 23:29S 32°55' E 152°59'2 3.6
2018-Apr-13 22:59S 32°53' E 152°59'2 4.2
2018-Apr-13 22:26S 32°50' E 152°60'5 8.1
2018-Apr-13 21:52S 32°46' E 152°60'3 8.3
2018-Apr-13 21:31S 32°43' E 152°60'4 8.2
2018-Apr-13 21:00S 32°39' E 153°01'4 8.3
2018-Apr-13 20:30S 32°35' E 152°59'4 8.6
2018-Apr-13 20:00S 32°33' E 152°54'5 9.2
2018-Apr-13 19:30S 32°36' E 152°50'5 9.7
2018-Apr-13 19:01S 32°40' E 152°46'5 9.6
2018-Apr-13 18:31S 32°43' E 152°42'19 9.6
2018-Apr-13 16:30S 32°57' E 152°26'5 9.7
2018-Apr-13 16:00S 33°01' E 152°23'5 9.7
2018-Apr-13 15:30S 33°04' E 152°19'9 9.5
2018-Apr-13 14:30S 33°11' E 152°11'5 9.8
2018-Apr-13 14:00S 33°15' E 152°07'14 9.6
2018-Apr-13 12:30S 33°25' E 151°55'5 9.2
2018-Apr-13 12:00S 33°29' E 151°51'5 9.2
2018-Apr-13 11:30S 33°32' E 151°48'5 9.3
2018-Apr-13 11:00S 33°35' E 151°44'5 9.2
2018-Apr-13 10:30S 33°39' E 151°40'5 9.2
2018-Apr-13 10:00S 33°42' E 151°36'5 9.3
2018-Apr-13 09:30S 33°45' E 151°33'510.8
2018-Apr-13 09:00S 33°49' E 151°28'5 9.0
2018-Apr-13 08:30S 33°52' E 151°24'5 9.2
2018-Apr-13 08:00S 33°51' E 151°19'4 8.6
2018-Apr-13 07:30S 33°51' E 151°14'0 0.0
2018-Apr-12 22:06S 33°51' E 151°14'1 7.5
2018-Apr-12 21:56S 33°51' E 151°15'410.3
2018-Apr-12 21:31S 33°50' E 151°21'5 9.9
2018-Apr-12 21:01S 33°54' E 151°24'612.3
2018-Apr-12 20:31S 34°00' E 151°23'612.5
2018-Apr-12 20:01S 34°06' E 151°21'612.6
2018-Apr-12 19:31S 34°12' E 151°20'713.0
2018-Apr-12 19:00S 34°19' E 151°18'25416.1
2018-Apr-12 03:16S 38°12' E 149°14'619.7
2018-Apr-12 02:58S 38°16' E 149°09'919.6
2018-Apr-12 02:30S 38°21' E 148°59'1019.3
2018-Apr-12 02:00S 38°27' E 148°49'1019.6
2018-Apr-12 01:30S 38°32' E 148°39'1519.4
2018-Apr-12 00:43S 38°41' E 148°23'418.7
2018-Apr-12 00:29S 38°44' E 148°18'918.9
2018-Apr-12 00:00S 38°48' E 148°08'918.9
2018-Apr-11 23:30S 38°51' E 147°56'918.9
2018-Apr-11 23:00S 38°54' E 147°45'918.6
2018-Apr-11 22:30S 38°58' E 147°34'918.6
2018-Apr-11 22:00S 39°01' E 147°23'918.2
2018-Apr-11 21:30S 39°04' E 147°12'1018.0
2018-Apr-11 20:58S 39°08' E 146°60'918.0
2018-Apr-11 20:28S 39°11' E 146°49'1018.2
2018-Apr-11 19:54S 39°14' E 146°37'718.2
2018-Apr-11 19:30S 39°15' E 146°27'918.4
2018-Apr-11 19:00S 39°15' E 146°16'1017.8
2018-Apr-11 18:27S 39°12' E 146°03'1019.3
2018-Apr-11 17:57S 39°07' E 145°53'919.3
2018-Apr-11 17:29S 39°02' E 145°43'919.4
2018-Apr-11 17:00S 38°57' E 145°33'2119.5
2018-Apr-11 15:55S 38°46' E 145°10'57 5.2
2018-Apr-11 05:04S 37°51' E 144°56'0 0.0
2018-Apr-11 04:49S 37°51' E 144°56'0 0.0
2018-Apr-11 01:34S 37°51' E 144°56'0 0.1
2018-Apr-11 01:10S 37°51' E 144°56'0 1.0
2018-Apr-11 00:58S 37°51' E 144°56'2 3.4
2018-Apr-11 00:30S 37°53' E 144°56'612.6
2018-Apr-10 23:59S 37°59' E 144°55'41 9.4
2018-Apr-10 19:39S 38°40' E 144°55'215.4
2018-Apr-10 19:30S 38°41' E 144°58'815.4
2018-Apr-10 19:00S 38°45' E 145°06'815.4
2018-Apr-10 18:30S 38°50' E 145°15'1015.4
2018-Apr-10 17:50S 38°55' E 145°26'515.2
2018-Apr-10 17:30S 38°58' E 145°31'714.7
2018-Apr-10 17:00S 39°02' E 145°39'1817.2
2018-Apr-10 15:59S 39°11' E 145°58'817.2
2018-Apr-10 15:30S 39°12' E 146°09'4617.0
2018-Apr-10 12:47S 39°00' E 147°07'517.4
2018-Apr-10 12:29S 38°59' E 147°13'917.4
2018-Apr-10 11:58S 38°56' E 147°24'817.5
2018-Apr-10 11:29S 38°53' E 147°34'917.4
2018-Apr-10 10:58S 38°50' E 147°45'817.4
2018-Apr-10 10:30S 38°48' E 147°55'917.6
2018-Apr-10 10:00S 38°45' E 148°06'917.8
2018-Apr-10 09:30S 38°42' E 148°16'1018.2
2018-Apr-10 08:58S 38°37' E 148°27'818.0
2018-Apr-10 08:30S 38°32' E 148°36'1318.2
2018-Apr-10 07:49S 38°25' E 148°49'718.2
2018-Apr-10 07:24S 38°21' E 148°57'818.2
2018-Apr-10 06:59S 38°17' E 149°05'918.5
2018-Apr-10 06:30S 38°12' E 149°15'1318.7
2018-Apr-10 05:48S 38°05' E 149°29'36318.1
2018-Apr-09 09:47S 33°44' E 154°40'517.4
2018-Apr-09 09:30S 33°40' E 154°44'  

Dump ship's entire track history